sensor_id;sensor_type;location;lat;lon;timestamp;P1;durP1;ratioP1;P2;durP2;ratioP2
9997;SDS011;5038;53.064;8.624;2023-12-20T00:00:24;10.70;;;3.73;;
9997;SDS011;5038;53.064;8.624;2023-12-20T00:02:52;12.00;;;3.60;;
9997;SDS011;5038;53.064;8.624;2023-12-20T00:05:20;9.90;;;3.33;;
9997;SDS011;5038;53.064;8.624;2023-12-20T00:07:48;8.57;;;3.83;;
9997;SDS011;5038;53.064;8.624;2023-12-20T00:10:18;11.97;;;3.53;;
9997;SDS011;5038;53.064;8.624;2023-12-20T00:12:46;10.60;;;3.97;;
9997;SDS011;5038;53.064;8.624;2023-12-20T00:15:15;6.97;;;3.27;;
9997;SDS011;5038;53.064;8.624;2023-12-20T00:17:43;9.97;;;2.87;;
9997;SDS011;5038;53.064;8.624;2023-12-20T00:20:12;10.50;;;3.60;;
9997;SDS011;5038;53.064;8.624;2023-12-20T00:22:40;11.00;;;3.60;;
9997;SDS011;5038;53.064;8.624;2023-12-20T00:25:08;9.30;;;2.60;;
9997;SDS011;5038;53.064;8.624;2023-12-20T00:27:38;10.30;;;3.07;;
9997;SDS011;5038;53.064;8.624;2023-12-20T00:30:07;7.70;;;3.00;;
9997;SDS011;5038;53.064;8.624;2023-12-20T00:32:36;8.50;;;2.63;;
9997;SDS011;5038;53.064;8.624;2023-12-20T00:35:05;8.80;;;2.77;;
9997;SDS011;5038;53.064;8.624;2023-12-20T00:37:34;9.10;;;2.70;;
9997;SDS011;5038;53.064;8.624;2023-12-20T00:40:02;8.07;;;2.60;;
9997;SDS011;5038;53.064;8.624;2023-12-20T00:42:31;7.50;;;2.80;;
9997;SDS011;5038;53.064;8.624;2023-12-20T00:45:01;9.10;;;3.10;;
9997;SDS011;5038;53.064;8.624;2023-12-20T00:47:31;13.40;;;2.90;;
9997;SDS011;5038;53.064;8.624;2023-12-20T00:49:59;9.40;;;3.20;;
9997;SDS011;5038;53.064;8.624;2023-12-20T00:52:27;10.90;;;4.10;;
9997;SDS011;5038;53.064;8.624;2023-12-20T00:54:56;9.27;;;3.20;;
9997;SDS011;5038;53.064;8.624;2023-12-20T00:57:24;9.10;;;4.30;;
9997;SDS011;5038;53.064;8.624;2023-12-20T00:59:52;9.80;;;3.53;;
9997;SDS011;5038;53.064;8.624;2023-12-20T01:02:22;10.63;;;3.40;;
9997;SDS011;5038;53.064;8.624;2023-12-20T01:04:50;5.43;;;2.93;;
9997;SDS011;5038;53.064;8.624;2023-12-20T01:07:18;9.60;;;3.00;;
9997;SDS011;5038;53.064;8.624;2023-12-20T01:09:47;9.83;;;3.13;;
9997;SDS011;5038;53.064;8.624;2023-12-20T01:12:15;7.20;;;3.40;;
9997;SDS011;5038;53.064;8.624;2023-12-20T01:14:44;10.93;;;3.17;;
9997;SDS011;5038;53.064;8.624;2023-12-20T01:17:12;8.43;;;3.17;;
9997;SDS011;5038;53.064;8.624;2023-12-20T01:19:43;18.57;;;3.40;;
9997;SDS011;5038;53.064;8.624;2023-12-20T01:22:12;9.63;;;2.90;;
9997;SDS011;5038;53.064;8.624;2023-12-20T01:24:40;8.27;;;2.87;;
9997;SDS011;5038;53.064;8.624;2023-12-20T01:27:09;10.07;;;2.77;;
9997;SDS011;5038;53.064;8.624;2023-12-20T01:29:37;10.30;;;2.97;;
9997;SDS011;5038;53.064;8.624;2023-12-20T01:32:05;9.30;;;2.93;;
9997;SDS011;5038;53.064;8.624;2023-12-20T01:34:34;8.90;;;2.67;;
9997;SDS011;5038;53.064;8.624;2023-12-20T01:37:04;16.33;;;2.77;;
9997;SDS011;5038;53.064;8.624;2023-12-20T01:39:32;10.13;;;3.17;;
9997;SDS011;5038;53.064;8.624;2023-12-20T01:42:00;11.20;;;3.53;;
9997;SDS011;5038;53.064;8.624;2023-12-20T01:44:28;7.33;;;2.40;;
9997;SDS011;5038;53.064;8.624;2023-12-20T01:46:57;9.73;;;2.90;;
9997;SDS011;5038;53.064;8.624;2023-12-20T01:49:25;9.90;;;3.20;;
9997;SDS011;5038;53.064;8.624;2023-12-20T01:51:53;9.67;;;2.87;;
9997;SDS011;5038;53.064;8.624;2023-12-20T01:54:24;12.00;;;3.07;;
9997;SDS011;5038;53.064;8.624;2023-12-20T01:56:52;4.80;;;2.60;;
9997;SDS011;5038;53.064;8.624;2023-12-20T01:59:21;6.53;;;2.90;;
9997;SDS011;5038;53.064;8.624;2023-12-20T02:01:49;9.63;;;2.90;;
9997;SDS011;5038;53.064;8.624;2023-12-20T02:04:18;9.00;;;2.97;;
9997;SDS011;5038;53.064;8.624;2023-12-20T02:06:46;6.53;;;2.90;;
9997;SDS011;5038;53.064;8.624;2023-12-20T02:09:17;11.10;;;3.00;;
9997;SDS011;5038;53.064;8.624;2023-12-20T02:11:47;8.60;;;3.73;;
9997;SDS011;5038;53.064;8.624;2023-12-20T02:14:15;9.03;;;2.93;;
9997;SDS011;5038;53.064;8.624;2023-12-20T02:16:43;11.23;;;3.83;;
9997;SDS011;5038;53.064;8.624;2023-12-20T02:19:13;9.50;;;3.17;;
9997;SDS011;5038;53.064;8.624;2023-12-20T02:21:43;8.40;;;3.13;;
9997;SDS011;5038;53.064;8.624;2023-12-20T02:24:12;14.27;;;3.87;;
9997;SDS011;5038;53.064;8.624;2023-12-20T02:26:40;12.20;;;2.97;;
9997;SDS011;5038;53.064;8.624;2023-12-20T02:29:12;10.00;;;2.80;;
9997;SDS011;5038;53.064;8.624;2023-12-20T02:31:40;11.80;;;3.43;;
9997;SDS011;5038;53.064;8.624;2023-12-20T02:34:09;7.50;;;3.27;;
9997;SDS011;5038;53.064;8.624;2023-12-20T02:36:37;9.20;;;3.10;;
9997;SDS011;5038;53.064;8.624;2023-12-20T02:39:07;10.73;;;3.30;;
9997;SDS011;5038;53.064;8.624;2023-12-20T02:41:35;8.77;;;3.70;;
9997;SDS011;5038;53.064;8.624;2023-12-20T02:44:03;8.33;;;3.60;;
9997;SDS011;5038;53.064;8.624;2023-12-20T02:46:31;7.97;;;3.10;;
9997;SDS011;5038;53.064;8.624;2023-12-20T02:49:00;15.27;;;3.27;;
9997;SDS011;5038;53.064;8.624;2023-12-20T02:51:28;13.97;;;4.10;;
9997;SDS011;5038;53.064;8.624;2023-12-20T02:53:56;8.50;;;3.13;;
9997;SDS011;5038;53.064;8.624;2023-12-20T02:56:26;7.63;;;2.80;;
9997;SDS011;5038;53.064;8.624;2023-12-20T02:58:56;8.00;;;3.43;;
9997;SDS011;5038;53.064;8.624;2023-12-20T03:01:24;7.20;;;2.93;;
9997;SDS011;5038;53.064;8.624;2023-12-20T03:03:53;9.27;;;3.27;;
9997;SDS011;5038;53.064;8.624;2023-12-20T03:06:21;9.50;;;3.27;;
9997;SDS011;5038;53.064;8.624;2023-12-20T03:08:49;6.93;;;3.00;;
9997;SDS011;5038;53.064;8.624;2023-12-20T03:11:18;13.60;;;4.43;;
9997;SDS011;5038;53.064;8.624;2023-12-20T03:13:47;7.50;;;3.40;;
9997;SDS011;5038;53.064;8.624;2023-12-20T03:16:16;8.87;;;3.53;;
9997;SDS011;5038;53.064;8.624;2023-12-20T03:18:44;10.53;;;3.60;;
9997;SDS011;5038;53.064;8.624;2023-12-20T03:21:12;9.80;;;3.60;;
9997;SDS011;5038;53.064;8.624;2023-12-20T03:23:41;9.87;;;3.27;;
9997;SDS011;5038;53.064;8.624;2023-12-20T03:26:09;11.70;;;3.33;;
9997;SDS011;5038;53.064;8.624;2023-12-20T03:28:38;11.60;;;3.30;;
9997;SDS011;5038;53.064;8.624;2023-12-20T03:31:07;12.87;;;4.33;;
9997;SDS011;5038;53.064;8.624;2023-12-20T03:33:37;10.10;;;3.47;;
9997;SDS011;5038;53.064;8.624;2023-12-20T03:36:06;16.70;;;5.57;;
9997;SDS011;5038;53.064;8.624;2023-12-20T03:38:34;10.53;;;4.00;;
9997;SDS011;5038;53.064;8.624;2023-12-20T03:41:03;10.63;;;4.60;;
9997;SDS011;5038;53.064;8.624;2023-12-20T03:43:31;10.43;;;3.33;;
9997;SDS011;5038;53.064;8.624;2023-12-20T03:46:00;10.80;;;3.73;;
9997;SDS011;5038;53.064;8.624;2023-12-20T03:48:31;11.30;;;4.50;;
9997;SDS011;5038;53.064;8.624;2023-12-20T03:50:59;11.30;;;4.23;;
9997;SDS011;5038;53.064;8.624;2023-12-20T03:53:28;14.27;;;5.83;;
9997;SDS011;5038;53.064;8.624;2023-12-20T03:55:56;12.53;;;5.47;;
9997;SDS011;5038;53.064;8.624;2023-12-20T03:58:24;14.83;;;5.40;;
9997;SDS011;5038;53.064;8.624;2023-12-20T04:00:52;11.27;;;4.77;;
9997;SDS011;5038;53.064;8.624;2023-12-20T04:03:21;14.97;;;4.83;;
9997;SDS011;5038;53.064;8.624;2023-12-20T04:05:50;11.40;;;4.10;;
9997;SDS011;5038;53.064;8.624;2023-12-20T04:08:19;9.97;;;4.90;;
9997;SDS011;5038;53.064;8.624;2023-12-20T04:10:47;10.63;;;4.17;;
9997;SDS011;5038;53.064;8.624;2023-12-20T04:13:15;10.23;;;5.33;;
9997;SDS011;5038;53.064;8.624;2023-12-20T04:15:44;9.87;;;4.43;;
9997;SDS011;5038;53.064;8.624;2023-12-20T04:18:12;13.83;;;4.70;;
9997;SDS011;5038;53.064;8.624;2023-12-20T04:20:41;11.40;;;3.80;;
9997;SDS011;5038;53.064;8.624;2023-12-20T04:23:10;12.00;;;4.50;;
9997;SDS011;5038;53.064;8.624;2023-12-20T04:25:38;13.13;;;5.83;;
9997;SDS011;5038;53.064;8.624;2023-12-20T04:28:07;11.47;;;4.83;;
9997;SDS011;5038;53.064;8.624;2023-12-20T04:30:35;8.83;;;3.60;;
9997;SDS011;5038;53.064;8.624;2023-12-20T04:33:03;11.50;;;4.63;;
9997;SDS011;5038;53.064;8.624;2023-12-20T04:35:32;11.03;;;4.83;;
9997;SDS011;5038;53.064;8.624;2023-12-20T04:38:00;11.03;;;4.90;;
9997;SDS011;5038;53.064;8.624;2023-12-20T04:40:29;11.70;;;5.10;;
9997;SDS011;5038;53.064;8.624;2023-12-20T04:42:58;13.10;;;4.80;;
9997;SDS011;5038;53.064;8.624;2023-12-20T04:45:26;11.80;;;5.70;;
9997;SDS011;5038;53.064;8.624;2023-12-20T04:47:55;9.00;;;4.53;;
9997;SDS011;5038;53.064;8.624;2023-12-20T04:50:23;14.17;;;4.90;;
9997;SDS011;5038;53.064;8.624;2023-12-20T04:52:51;15.77;;;6.43;;
9997;SDS011;5038;53.064;8.624;2023-12-20T04:55:19;10.80;;;4.90;;
9997;SDS011;5038;53.064;8.624;2023-12-20T04:57:49;19.87;;;6.00;;
9997;SDS011;5038;53.064;8.624;2023-12-20T05:00:17;10.87;;;4.60;;
9997;SDS011;5038;53.064;8.624;2023-12-20T05:02:46;13.50;;;4.60;;
9997;SDS011;5038;53.064;8.624;2023-12-20T05:05:14;8.80;;;4.70;;
9997;SDS011;5038;53.064;8.624;2023-12-20T05:07:44;17.50;;;6.23;;
9997;SDS011;5038;53.064;8.624;2023-12-20T05:10:13;19.53;;;5.20;;
9997;SDS011;5038;53.064;8.624;2023-12-20T05:12:41;14.57;;;4.70;;
9997;SDS011;5038;53.064;8.624;2023-12-20T05:15:11;15.50;;;5.80;;
9997;SDS011;5038;53.064;8.624;2023-12-20T05:17:39;13.77;;;5.50;;
9997;SDS011;5038;53.064;8.624;2023-12-20T05:20:08;13.90;;;6.07;;
9997;SDS011;5038;53.064;8.624;2023-12-20T05:22:37;14.90;;;7.23;;
9997;SDS011;5038;53.064;8.624;2023-12-20T05:25:05;15.57;;;5.47;;
9997;SDS011;5038;53.064;8.624;2023-12-20T05:27:34;13.67;;;5.60;;
9997;SDS011;5038;53.064;8.624;2023-12-20T05:30:02;12.20;;;5.43;;
9997;SDS011;5038;53.064;8.624;2023-12-20T05:32:32;14.33;;;5.03;;
9997;SDS011;5038;53.064;8.624;2023-12-20T05:35:01;11.63;;;4.60;;
9997;SDS011;5038;53.064;8.624;2023-12-20T05:37:29;13.30;;;5.30;;
9997;SDS011;5038;53.064;8.624;2023-12-20T05:39:58;11.27;;;4.93;;
9997;SDS011;5038;53.064;8.624;2023-12-20T05:42:26;9.97;;;4.80;;
9997;SDS011;5038;53.064;8.624;2023-12-20T05:44:54;15.67;;;5.43;;
9997;SDS011;5038;53.064;8.624;2023-12-20T05:47:24;16.13;;;5.07;;
9997;SDS011;5038;53.064;8.624;2023-12-20T05:49:54;16.60;;;6.17;;
9997;SDS011;5038;53.064;8.624;2023-12-20T05:52:22;14.50;;;4.83;;
9997;SDS011;5038;53.064;8.624;2023-12-20T05:54:51;16.87;;;4.87;;
9997;SDS011;5038;53.064;8.624;2023-12-20T05:57:19;13.23;;;5.53;;
9997;SDS011;5038;53.064;8.624;2023-12-20T05:59:48;13.60;;;6.03;;
9997;SDS011;5038;53.064;8.624;2023-12-20T06:02:16;16.70;;;5.93;;
9997;SDS011;5038;53.064;8.624;2023-12-20T06:04:44;17.40;;;5.40;;
9997;SDS011;5038;53.064;8.624;2023-12-20T06:07:14;18.97;;;6.27;;
9997;SDS011;5038;53.064;8.624;2023-12-20T06:09:43;18.90;;;6.40;;
9997;SDS011;5038;53.064;8.624;2023-12-20T06:12:12;12.07;;;4.33;;
9997;SDS011;5038;53.064;8.624;2023-12-20T06:14:40;15.37;;;5.30;;
9997;SDS011;5038;53.064;8.624;2023-12-20T06:17:08;13.43;;;4.90;;
9997;SDS011;5038;53.064;8.624;2023-12-20T06:19:36;15.60;;;6.80;;
9997;SDS011;5038;53.064;8.624;2023-12-20T06:22:05;16.07;;;5.53;;
9997;SDS011;5038;53.064;8.624;2023-12-20T06:24:34;18.47;;;6.83;;
9997;SDS011;5038;53.064;8.624;2023-12-20T06:27:03;15.43;;;5.90;;
9997;SDS011;5038;53.064;8.624;2023-12-20T06:29:31;19.17;;;7.13;;
9997;SDS011;5038;53.064;8.624;2023-12-20T06:32:01;15.50;;;6.27;;
9997;SDS011;5038;53.064;8.624;2023-12-20T06:34:29;15.50;;;6.63;;
9997;SDS011;5038;53.064;8.624;2023-12-20T06:36:58;13.60;;;5.45;;
9997;SDS011;5038;53.064;8.624;2023-12-20T06:39:26;14.03;;;5.40;;
9997;SDS011;5038;53.064;8.624;2023-12-20T06:41:57;15.47;;;5.90;;
9997;SDS011;5038;53.064;8.624;2023-12-20T06:44:25;16.13;;;5.97;;
9997;SDS011;5038;53.064;8.624;2023-12-20T06:46:53;18.47;;;6.43;;
9997;SDS011;5038;53.064;8.624;2023-12-20T06:49:21;19.13;;;5.90;;
9997;SDS011;5038;53.064;8.624;2023-12-20T06:51:50;16.10;;;6.70;;
9997;SDS011;5038;53.064;8.624;2023-12-20T06:54:19;17.80;;;6.23;;
9997;SDS011;5038;53.064;8.624;2023-12-20T06:56:47;21.60;;;7.53;;
9997;SDS011;5038;53.064;8.624;2023-12-20T06:59:17;17.20;;;6.40;;
9997;SDS011;5038;53.064;8.624;2023-12-20T07:01:47;23.37;;;6.27;;
9997;SDS011;5038;53.064;8.624;2023-12-20T07:04:16;14.87;;;5.30;;
9997;SDS011;5038;53.064;8.624;2023-12-20T07:06:48;20.13;;;5.87;;
9997;SDS011;5038;53.064;8.624;2023-12-20T07:09:18;15.33;;;6.33;;
9997;SDS011;5038;53.064;8.624;2023-12-20T07:11:46;14.30;;;5.53;;
9997;SDS011;5038;53.064;8.624;2023-12-20T07:14:15;19.90;;;6.70;;
9997;SDS011;5038;53.064;8.624;2023-12-20T07:16:44;19.30;;;5.63;;
9997;SDS011;5038;53.064;8.624;2023-12-20T07:19:12;24.70;;;6.63;;
9997;SDS011;5038;53.064;8.624;2023-12-20T07:21:41;16.07;;;6.13;;
9997;SDS011;5038;53.064;8.624;2023-12-20T07:24:09;15.83;;;6.50;;
9997;SDS011;5038;53.064;8.624;2023-12-20T07:26:37;18.13;;;6.13;;
9997;SDS011;5038;53.064;8.624;2023-12-20T07:29:06;15.87;;;6.03;;
9997;SDS011;5038;53.064;8.624;2023-12-20T07:31:34;16.80;;;6.20;;
9997;SDS011;5038;53.064;8.624;2023-12-20T07:34:04;14.30;;;6.87;;
9997;SDS011;5038;53.064;8.624;2023-12-20T07:36:33;23.07;;;7.10;;
9997;SDS011;5038;53.064;8.624;2023-12-20T07:39:01;20.73;;;6.20;;
9997;SDS011;5038;53.064;8.624;2023-12-20T07:41:29;14.33;;;7.17;;
9997;SDS011;5038;53.064;8.624;2023-12-20T07:43:58;18.50;;;7.50;;
9997;SDS011;5038;53.064;8.624;2023-12-20T07:46:26;17.07;;;6.70;;
9997;SDS011;5038;53.064;8.624;2023-12-20T07:48:54;18.00;;;6.63;;
9997;SDS011;5038;53.064;8.624;2023-12-20T07:51:24;13.57;;;6.50;;
9997;SDS011;5038;53.064;8.624;2023-12-20T07:53:52;14.50;;;7.00;;
9997;SDS011;5038;53.064;8.624;2023-12-20T07:56:20;14.10;;;6.20;;
9997;SDS011;5038;53.064;8.624;2023-12-20T07:58:49;15.83;;;6.63;;
9997;SDS011;5038;53.064;8.624;2023-12-20T08:01:19;21.27;;;6.90;;
9997;SDS011;5038;53.064;8.624;2023-12-20T08:03:49;14.33;;;6.07;;
9997;SDS011;5038;53.064;8.624;2023-12-20T08:06:18;13.63;;;6.37;;
9997;SDS011;5038;53.064;8.624;2023-12-20T08:08:48;17.90;;;6.77;;
9997;SDS011;5038;53.064;8.624;2023-12-20T08:11:27;11.47;;;6.10;;
9997;SDS011;5038;53.064;8.624;2023-12-20T08:13:56;15.67;;;6.63;;
9997;SDS011;5038;53.064;8.624;2023-12-20T08:16:25;12.50;;;4.93;;
9997;SDS011;5038;53.064;8.624;2023-12-20T08:18:53;16.70;;;5.93;;
9997;SDS011;5038;53.064;8.624;2023-12-20T08:21:22;15.17;;;6.00;;
9997;SDS011;5038;53.064;8.624;2023-12-20T08:23:52;15.67;;;6.40;;
9997;SDS011;5038;53.064;8.624;2023-12-20T08:26:20;15.60;;;6.17;;
9997;SDS011;5038;53.064;8.624;2023-12-20T08:28:50;15.70;;;7.07;;
9997;SDS011;5038;53.064;8.624;2023-12-20T08:31:18;13.30;;;6.80;;
9997;SDS011;5038;53.064;8.624;2023-12-20T08:33:48;16.40;;;7.60;;
9997;SDS011;5038;53.064;8.624;2023-12-20T08:36:17;18.50;;;6.47;;
9997;SDS011;5038;53.064;8.624;2023-12-20T08:38:48;14.97;;;5.80;;
9997;SDS011;5038;53.064;8.624;2023-12-20T08:41:18;16.07;;;5.40;;
9997;SDS011;5038;53.064;8.624;2023-12-20T08:43:47;12.53;;;5.97;;
9997;SDS011;5038;53.064;8.624;2023-12-20T08:46:15;19.47;;;5.33;;
9997;SDS011;5038;53.064;8.624;2023-12-20T08:48:43;11.40;;;5.30;;
9997;SDS011;5038;53.064;8.624;2023-12-20T08:51:12;14.73;;;5.40;;
9997;SDS011;5038;53.064;8.624;2023-12-20T08:53:41;15.57;;;5.90;;
9997;SDS011;5038;53.064;8.624;2023-12-20T08:56:11;14.33;;;6.00;;
9997;SDS011;5038;53.064;8.624;2023-12-20T08:58:41;14.97;;;5.87;;
9997;SDS011;5038;53.064;8.624;2023-12-20T09:01:09;15.50;;;6.00;;
9997;SDS011;5038;53.064;8.624;2023-12-20T09:03:38;12.70;;;6.43;;
9997;SDS011;5038;53.064;8.624;2023-12-20T09:06:06;15.60;;;6.20;;
9997;SDS011;5038;53.064;8.624;2023-12-20T09:08:35;15.90;;;6.33;;
9997;SDS011;5038;53.064;8.624;2023-12-20T09:11:03;19.50;;;6.20;;
9997;SDS011;5038;53.064;8.624;2023-12-20T09:13:32;12.63;;;4.70;;
9997;SDS011;5038;53.064;8.624;2023-12-20T09:16:02;16.43;;;6.17;;
9997;SDS011;5038;53.064;8.624;2023-12-20T09:18:31;13.00;;;5.87;;
9997;SDS011;5038;53.064;8.624;2023-12-20T09:20:59;17.50;;;6.40;;
9997;SDS011;5038;53.064;8.624;2023-12-20T09:23:28;19.33;;;7.03;;
9997;SDS011;5038;53.064;8.624;2023-12-20T09:25:56;19.83;;;7.03;;
9997;SDS011;5038;53.064;8.624;2023-12-20T09:28:25;17.53;;;6.50;;
9997;SDS011;5038;53.064;8.624;2023-12-20T09:30:53;13.67;;;5.70;;
9997;SDS011;5038;53.064;8.624;2023-12-20T09:33:23;16.97;;;7.37;;
9997;SDS011;5038;53.064;8.624;2023-12-20T09:35:51;15.17;;;6.23;;
9997;SDS011;5038;53.064;8.624;2023-12-20T09:38:20;13.00;;;6.70;;
9997;SDS011;5038;53.064;8.624;2023-12-20T09:40:49;13.57;;;5.50;;
9997;SDS011;5038;53.064;8.624;2023-12-20T09:43:18;15.57;;;5.87;;
9997;SDS011;5038;53.064;8.624;2023-12-20T09:45:48;15.10;;;5.60;;
9997;SDS011;5038;53.064;8.624;2023-12-20T09:48:17;4.73;;;1.93;;
9997;SDS011;5038;53.064;8.624;2023-12-20T09:50:48;3.73;;;1.83;;
9997;SDS011;5038;53.064;8.624;2023-12-20T09:53:19;6.90;;;2.63;;
9997;SDS011;5038;53.064;8.624;2023-12-20T09:55:51;5.10;;;2.20;;
9997;SDS011;5038;53.064;8.624;2023-12-20T09:58:20;4.93;;;1.70;;
9997;SDS011;5038;53.064;8.624;2023-12-20T10:00:48;4.67;;;1.27;;
9997;SDS011;5038;53.064;8.624;2023-12-20T10:03:19;3.20;;;1.47;;
9997;SDS011;5038;53.064;8.624;2023-12-20T10:05:53;4.83;;;1.50;;
9997;SDS011;5038;53.064;8.624;2023-12-20T10:08:24;3.50;;;1.17;;
9997;SDS011;5038;53.064;8.624;2023-12-20T10:10:53;2.90;;;1.70;;
9997;SDS011;5038;53.064;8.624;2023-12-20T10:13:22;3.63;;;0.93;;
9997;SDS011;5038;53.064;8.624;2023-12-20T10:15:50;3.83;;;1.17;;
9997;SDS011;5038;53.064;8.624;2023-12-20T10:18:18;3.93;;;0.80;;
9997;SDS011;5038;53.064;8.624;2023-12-20T10:21:04;3.63;;;1.20;;
9997;SDS011;5038;53.064;8.624;2023-12-20T10:23:33;3.60;;;1.30;;
9997;SDS011;5038;53.064;8.624;2023-12-20T10:26:01;4.83;;;1.30;;
9997;SDS011;5038;53.064;8.624;2023-12-20T10:28:33;3.83;;;1.40;;
9997;SDS011;5038;53.064;8.624;2023-12-20T10:31:02;3.97;;;1.77;;
9997;SDS011;5038;53.064;8.624;2023-12-20T10:33:30;5.00;;;1.53;;
9997;SDS011;5038;53.064;8.624;2023-12-20T10:36:00;3.03;;;1.20;;
9997;SDS011;5038;53.064;8.624;2023-12-20T10:38:30;6.30;;;1.87;;
9997;SDS011;5038;53.064;8.624;2023-12-20T10:40:59;3.20;;;1.73;;
9997;SDS011;5038;53.064;8.624;2023-12-20T10:43:31;4.53;;;1.20;;
9997;SDS011;5038;53.064;8.624;2023-12-20T10:46:02;5.60;;;2.33;;
9997;SDS011;5038;53.064;8.624;2023-12-20T10:48:31;6.10;;;1.50;;
9997;SDS011;5038;53.064;8.624;2023-12-20T10:51:00;3.43;;;1.20;;
9997;SDS011;5038;53.064;8.624;2023-12-20T10:53:30;6.10;;;1.50;;
9997;SDS011;5038;53.064;8.624;2023-12-20T10:56:00;4.40;;;1.60;;
9997;SDS011;5038;53.064;8.624;2023-12-20T10:58:30;6.47;;;1.43;;
9997;SDS011;5038;53.064;8.624;2023-12-20T11:01:01;5.73;;;1.77;;
9997;SDS011;5038;53.064;8.624;2023-12-20T11:03:31;4.70;;;1.10;;
9997;SDS011;5038;53.064;8.624;2023-12-20T11:06:04;5.93;;;1.63;;
9997;SDS011;5038;53.064;8.624;2023-12-20T11:08:42;6.73;;;2.07;;
9997;SDS011;5038;53.064;8.624;2023-12-20T11:11:15;6.13;;;1.50;;
9997;SDS011;5038;53.064;8.624;2023-12-20T11:13:54;5.53;;;1.90;;
9997;SDS011;5038;53.064;8.624;2023-12-20T11:16:26;4.83;;;1.90;;
9997;SDS011;5038;53.064;8.624;2023-12-20T11:19:09;5.13;;;2.40;;
9997;SDS011;5038;53.064;8.624;2023-12-20T11:21:41;7.53;;;2.50;;
9997;SDS011;5038;53.064;8.624;2023-12-20T11:24:11;11.27;;;2.67;;
9997;SDS011;5038;53.064;8.624;2023-12-20T11:26:39;4.80;;;1.70;;
9997;SDS011;5038;53.064;8.624;2023-12-20T11:29:33;3.43;;;1.40;;
9997;SDS011;5038;53.064;8.624;2023-12-20T11:32:03;6.40;;;2.00;;
9997;SDS011;5038;53.064;8.624;2023-12-20T11:35:01;5.00;;;1.83;;
9997;SDS011;5038;53.064;8.624;2023-12-20T11:37:45;8.20;;;2.50;;
9997;SDS011;5038;53.064;8.624;2023-12-20T11:40:15;7.20;;;2.93;;
9997;SDS011;5038;53.064;8.624;2023-12-20T11:42:45;10.60;;;2.90;;
9997;SDS011;5038;53.064;8.624;2023-12-20T11:45:17;6.07;;;2.33;;
9997;SDS011;5038;53.064;8.624;2023-12-20T11:47:50;7.13;;;2.60;;
9997;SDS011;5038;53.064;8.624;2023-12-20T11:50:21;9.57;;;2.37;;
9997;SDS011;5038;53.064;8.624;2023-12-20T11:52:51;9.10;;;2.50;;
9997;SDS011;5038;53.064;8.624;2023-12-20T11:55:20;9.27;;;2.60;;
9997;SDS011;5038;53.064;8.624;2023-12-20T11:57:50;9.53;;;2.70;;
9997;SDS011;5038;53.064;8.624;2023-12-20T12:00:19;8.67;;;3.57;;
9997;SDS011;5038;53.064;8.624;2023-12-20T12:02:58;6.20;;;2.47;;
9997;SDS011;5038;53.064;8.624;2023-12-20T12:05:30;7.17;;;2.73;;
9997;SDS011;5038;53.064;8.624;2023-12-20T12:07:59;10.27;;;3.17;;
9997;SDS011;5038;53.064;8.624;2023-12-20T12:10:28;8.80;;;3.57;;
9997;SDS011;5038;53.064;8.624;2023-12-20T12:12:56;10.67;;;3.47;;
9997;SDS011;5038;53.064;8.624;2023-12-20T12:15:25;6.43;;;2.47;;
9997;SDS011;5038;53.064;8.624;2023-12-20T12:17:53;11.33;;;3.20;;
9997;SDS011;5038;53.064;8.624;2023-12-20T12:20:24;10.13;;;2.97;;
9997;SDS011;5038;53.064;8.624;2023-12-20T12:22:59;8.90;;;2.73;;
9997;SDS011;5038;53.064;8.624;2023-12-20T12:25:28;9.90;;;3.40;;
9997;SDS011;5038;53.064;8.624;2023-12-20T12:27:58;10.30;;;3.00;;
9997;SDS011;5038;53.064;8.624;2023-12-20T12:30:27;9.50;;;2.97;;
9997;SDS011;5038;53.064;8.624;2023-12-20T12:33:04;8.20;;;2.97;;
9997;SDS011;5038;53.064;8.624;2023-12-20T12:35:34;9.60;;;3.13;;
9997;SDS011;5038;53.064;8.624;2023-12-20T12:38:02;10.00;;;3.30;;
9997;SDS011;5038;53.064;8.624;2023-12-20T12:40:34;11.43;;;3.83;;
9997;SDS011;5038;53.064;8.624;2023-12-20T12:43:03;8.83;;;2.97;;
9997;SDS011;5038;53.064;8.624;2023-12-20T12:45:33;12.60;;;3.90;;
9997;SDS011;5038;53.064;8.624;2023-12-20T12:48:01;11.07;;;3.33;;
9997;SDS011;5038;53.064;8.624;2023-12-20T12:50:30;10.77;;;3.50;;
9997;SDS011;5038;53.064;8.624;2023-12-20T12:53:00;15.33;;;4.07;;
9997;SDS011;5038;53.064;8.624;2023-12-20T12:55:29;11.87;;;5.07;;
9997;SDS011;5038;53.064;8.624;2023-12-20T12:57:57;7.10;;;3.27;;
9997;SDS011;5038;53.064;8.624;2023-12-20T13:00:25;10.50;;;3.27;;
9997;SDS011;5038;53.064;8.624;2023-12-20T13:02:54;12.00;;;3.37;;
9997;SDS011;5038;53.064;8.624;2023-12-20T13:05:22;11.80;;;2.93;;
9997;SDS011;5038;53.064;8.624;2023-12-20T13:07:50;12.13;;;3.80;;
9997;SDS011;5038;53.064;8.624;2023-12-20T13:10:20;10.10;;;3.17;;
9997;SDS011;5038;53.064;8.624;2023-12-20T13:12:49;16.90;;;3.40;;
9997;SDS011;5038;53.064;8.624;2023-12-20T13:15:18;9.43;;;3.13;;
9997;SDS011;5038;53.064;8.624;2023-12-20T13:17:46;10.63;;;3.47;;
9997;SDS011;5038;53.064;8.624;2023-12-20T13:20:15;15.17;;;3.73;;
9997;SDS011;5038;53.064;8.624;2023-12-20T13:22:43;14.57;;;3.77;;
9997;SDS011;5038;53.064;8.624;2023-12-20T13:25:12;8.97;;;3.67;;
9997;SDS011;5038;53.064;8.624;2023-12-20T13:27:42;8.80;;;2.60;;
9997;SDS011;5038;53.064;8.624;2023-12-20T13:30:11;9.20;;;3.43;;
9997;SDS011;5038;53.064;8.624;2023-12-20T13:32:40;8.67;;;3.30;;
9997;SDS011;5038;53.064;8.624;2023-12-20T13:35:08;6.07;;;3.37;;
9997;SDS011;5038;53.064;8.624;2023-12-20T13:37:37;12.90;;;4.70;;
9997;SDS011;5038;53.064;8.624;2023-12-20T13:40:09;12.83;;;4.80;;
9997;SDS011;5038;53.064;8.624;2023-12-20T13:42:39;14.33;;;5.87;;
9997;SDS011;5038;53.064;8.624;2023-12-20T13:45:09;14.90;;;4.60;;
9997;SDS011;5038;53.064;8.624;2023-12-20T13:47:37;11.57;;;3.80;;
9997;SDS011;5038;53.064;8.624;2023-12-20T13:50:06;9.57;;;4.07;;
9997;SDS011;5038;53.064;8.624;2023-12-20T13:52:34;10.40;;;3.57;;
9997;SDS011;5038;53.064;8.624;2023-12-20T13:55:05;10.73;;;4.13;;
9997;SDS011;5038;53.064;8.624;2023-12-20T13:57:35;13.53;;;4.03;;
9997;SDS011;5038;53.064;8.624;2023-12-20T14:00:22;12.60;;;4.47;;
9997;SDS011;5038;53.064;8.624;2023-12-20T14:02:50;13.97;;;4.60;;
9997;SDS011;5038;53.064;8.624;2023-12-20T14:05:18;12.13;;;3.53;;
9997;SDS011;5038;53.064;8.624;2023-12-20T14:07:52;10.80;;;3.40;;
9997;SDS011;5038;53.064;8.624;2023-12-20T14:10:20;11.80;;;4.07;;
9997;SDS011;5038;53.064;8.624;2023-12-20T14:12:49;12.50;;;4.20;;
9997;SDS011;5038;53.064;8.624;2023-12-20T14:15:17;14.30;;;3.97;;
9997;SDS011;5038;53.064;8.624;2023-12-20T14:17:47;10.87;;;3.70;;
9997;SDS011;5038;53.064;8.624;2023-12-20T14:20:15;18.20;;;4.13;;
9997;SDS011;5038;53.064;8.624;2023-12-20T14:22:44;10.77;;;3.87;;
9997;SDS011;5038;53.064;8.624;2023-12-20T14:25:13;11.57;;;4.43;;
9997;SDS011;5038;53.064;8.624;2023-12-20T14:27:42;12.83;;;4.20;;
9997;SDS011;5038;53.064;8.624;2023-12-20T14:30:12;13.73;;;4.40;;
9997;SDS011;5038;53.064;8.624;2023-12-20T14:32:41;12.27;;;3.33;;
9997;SDS011;5038;53.064;8.624;2023-12-20T14:35:11;9.77;;;3.80;;
9997;SDS011;5038;53.064;8.624;2023-12-20T14:37:40;9.73;;;3.60;;
9997;SDS011;5038;53.064;8.624;2023-12-20T14:40:09;10.93;;;3.63;;
9997;SDS011;5038;53.064;8.624;2023-12-20T14:42:42;13.87;;;3.60;;
9997;SDS011;5038;53.064;8.624;2023-12-20T14:45:11;13.50;;;3.53;;
9997;SDS011;5038;53.064;8.624;2023-12-20T14:47:40;8.60;;;3.50;;
9997;SDS011;5038;53.064;8.624;2023-12-20T14:50:09;10.80;;;3.27;;
9997;SDS011;5038;53.064;8.624;2023-12-20T14:52:39;19.07;;;4.70;;
9997;SDS011;5038;53.064;8.624;2023-12-20T14:55:08;7.73;;;3.70;;
9997;SDS011;5038;53.064;8.624;2023-12-20T14:57:36;14.30;;;4.17;;
9997;SDS011;5038;53.064;8.624;2023-12-20T15:00:05;11.90;;;3.97;;
9997;SDS011;5038;53.064;8.624;2023-12-20T15:02:34;13.77;;;3.07;;
9997;SDS011;5038;53.064;8.624;2023-12-20T15:05:03;7.40;;;2.97;;
9997;SDS011;5038;53.064;8.624;2023-12-20T15:07:32;8.07;;;3.43;;
9997;SDS011;5038;53.064;8.624;2023-12-20T15:10:01;10.80;;;3.77;;
9997;SDS011;5038;53.064;8.624;2023-12-20T15:12:30;8.30;;;4.17;;
9997;SDS011;5038;53.064;8.624;2023-12-20T15:15:00;14.07;;;4.30;;
9997;SDS011;5038;53.064;8.624;2023-12-20T15:17:31;10.20;;;3.63;;
9997;SDS011;5038;53.064;8.624;2023-12-20T15:20:00;7.77;;;3.13;;